Time;durP1;ratioP1;P1;durP2;ratioP2;P2;SDS_P1;SDS_P2;PMS_P1;PMS_P2;Temp;Humidity;BMP_temperature;BMP_pressure;BME280_temperature;BME280_humidity;BME280_pressure;Samples;Min_cycle;Max_cycle;Signal;HPM_P1;HPM_P2
2021/03/28 00:02:29;;;;;;;8.30;4.28;;;;;;;6.69;60.64;100959.08;147747;1147;104551;-77
2021/03/28 00:05:35;;;;;;;8.30;4.12;;;;;;;6.64;59.54;100967.38;147849;1147;104469;-77
2021/03/28 00:08:40;;;;;;;8.83;4.73;;;;;;;6.59;60.09;100974.81;148081;1146;104553;-78
2021/03/28 00:12:02;;;;;;;10.78;4.62;;;;;;;6.58;59.39;100970.48;147985;1147;104394;-78
2021/03/28 00:15:21;;;;;;;10.23;6.72;;;;;;;6.51;59.82;100974.52;148065;1147;105167;-78
2021/03/28 00:18:26;;;;;;;8.18;4.37;;;;;;;6.41;60.47;100969.02;148249;1147;104538;-78
2021/03/28 00:21:33;;;;;;;6.70;3.65;;;;;;;6.38;60.36;100971.04;147773;1147;104461;-76
2021/03/28 00:24:41;;;;;;;6.53;3.63;;;;;;;6.28;59.50;100966.38;147865;1147;104451;-80
2021/03/28 00:27:50;;;;;;;8.05;4.28;;;;;;;6.23;59.91;100965.00;147859;1147;104868;-78
2021/03/28 00:31:07;;;;;;;6.60;3.65;;;;;;;6.17;60.27;100974.23;147819;1147;104618;-78
2021/03/28 00:34:23;;;;;;;8.75;4.50;;;;;;;6.09;59.76;100965.98;147831;1148;104483;-79
2021/03/28 00:37:29;;;;;;;10.20;5.33;;;;;;;6.03;60.14;100974.35;147819;1147;104473;-79
2021/03/28 00:40:33;;;;;;;10.50;5.60;;;;;;;5.96;60.19;100975.72;147654;1147;104483;-79
2021/03/28 00:43:46;;;;;;;7.97;4.93;;;;;;;5.92;59.88;100980.34;147748;1146;104464;-78
2021/03/28 00:46:56;;;;;;;7.50;4.22;;;;;;;5.84;60.42;100978.22;147682;1146;105257;-79
2021/03/28 00:50:27;;;;;;;8.48;4.67;;;;;;;5.76;60.09;100987.66;147590;1148;104546;-81
2021/03/28 00:53:36;;;;;;;11.70;4.80;;;;;;;5.68;60.29;100988.17;147596;1148;104447;-79
2021/03/28 00:56:42;;;;;;;7.58;4.33;;;;;;;5.63;60.45;100982.33;147522;1147;104550;-81
2021/03/28 00:59:56;;;;;;;8.35;4.70;;;;;;;5.54;60.18;100975.00;147377;1147;104427;-84
2021/03/28 01:03:33;;;;;;;8.73;4.58;;;;;;;5.48;60.27;100984.20;147383;1147;105046;-79
2021/03/28 01:06:43;;;;;;;11.03;5.07;;;;;;;5.42;60.46;100987.26;147658;1148;104864;-80
2021/03/28 01:10:21;;;;;;;8.60;4.83;;;;;;;5.37;60.61;100987.58;147772;1147;104535;-82
2021/03/28 01:13:56;;;;;;;10.80;6.25;;;;;;;5.36;60.59;101004.39;147622;1148;104505;-80
2021/03/28 01:17:25;;;;;;;9.35;5.58;;;;;;;5.31;60.75;101003.83;147639;1147;104490;-85
2021/03/28 01:20:42;;;;;;;9.95;4.58;;;;;;;5.26;60.59;101008.60;147807;1147;104447;-79
2021/03/28 01:23:55;;;;;;;8.03;5.00;;;;;;;5.25;60.71;101012.18;147800;1147;104641;-80
2021/03/28 01:27:20;;;;;;;8.50;4.58;;;;;;;5.26;60.68;101009.44;147468;1147;104549;-83
2021/03/28 01:30:35;;;;;;;9.40;4.60;;;;;;;5.34;60.69;101011.59;147766;1147;104522;-79
2021/03/28 01:33:49;;;;;;;9.60;4.47;;;;;;;5.38;60.58;101012.23;147796;1147;104546;-80
2021/03/28 01:37:05;;;;;;;9.53;4.70;;;;;;;5.40;60.33;101007.69;147694;1147;104665;-76
2021/03/28 01:40:18;;;;;;;9.25;4.80;;;;;;;5.37;60.91;101011.39;147822;1147;104641;-78
2021/03/28 01:43:28;;;;;;;11.12;5.12;;;;;;;5.33;60.69;101015.16;147792;1146;104863;-76
2021/03/28 01:46:44;;;;;;;10.40;5.10;;;;;;;5.28;60.49;101017.28;147795;1147;104554;-80
2021/03/28 01:50:01;;;;;;;9.38;4.95;;;;;;;5.20;60.86;101019.59;147839;1147;104549;-84
2021/03/28 01:53:18;;;;;;;11.38;5.70;;;;;;;5.10;61.31;101020.18;147817;1147;104561;-84
2021/03/28 01:56:30;;;;;;;9.95;5.35;;;;;;;4.95;60.96;101018.52;147852;1147;104645;-81
2021/03/28 01:59:41;;;;;;;11.95;5.12;;;;;;;4.90;62.45;101024.08;147743;1147;104553;-80
2021/03/28 02:02:55;;;;;;;10.80;5.45;;;;;;;4.82;61.10;101020.24;147478;1147;104558;-80
2021/03/28 02:06:10;;;;;;;9.38;5.28;;;;;;;4.75;61.42;101018.92;147718;1147;104456;-83
2021/03/28 02:09:29;;;;;;;12.13;6.97;;;;;;;4.70;61.19;101021.87;147565;1147;104530;-81
2021/03/28 02:12:39;;;;;;;14.47;6.75;;;;;;;4.61;61.79;101022.44;147941;1147;104492;-81
2021/03/28 02:15:52;;;;;;;11.25;5.60;;;;;;;4.53;61.71;101020.27;147829;1147;104503;-82
2021/03/28 02:19:11;;;;;;;13.67;6.40;;;;;;;4.47;62.24;101025.95;147855;1147;104553;-79
2021/03/28 02:22:21;;;;;;;12.33;5.10;;;;;;;4.44;62.01;101026.97;147781;1147;104473;-81
2021/03/28 02:25:42;;;;;;;10.43;4.78;;;;;;;4.44;61.63;101024.32;147756;1147;104601;-81
2021/03/28 02:28:56;;;;;;;8.10;4.70;;;;;;;4.47;61.54;101028.59;147676;1147;104510;-84
2021/03/28 02:32:21;;;;;;;11.40;4.90;;;;;;;4.50;61.50;101033.66;147391;1147;104448;-82
2021/03/28 02:35:53;;;;;;;10.98;5.80;;;;;;;4.52;62.02;101030.00;147481;1146;104852;-83
2021/03/28 02:39:07;;;;;;;;;;;;;;;4.52;61.95;101039.70;147776;1148;104822;-84
2021/03/28 02:42:17;;;;;;;9.30;5.65;;;;;;;4.51;62.09;101044.15;148031;1147;104550;-79
2021/03/28 02:45:24;;;;;;;11.08;5.45;;;;;;;4.46;62.04;101046.22;147945;1147;104434;-78
2021/03/28 02:48:44;;;;;;;9.33;5.10;;;;;;;4.44;62.46;101047.27;148129;1147;104454;-76
2021/03/28 02:52:06;;;;;;;9.15;5.20;;;;;;;4.38;61.96;101047.64;148846;1147;104450;-84
2021/03/28 02:55:36;;;;;;;9.38;5.03;;;;;;;4.38;62.27;101058.21;147561;1147;104439;-86
2021/03/28 02:59:02;;;;;;;9.23;5.13;;;;;;;4.33;62.51;101064.63;147759;1147;104642;-78
2021/03/28 03:02:21;;;;;;;9.87;5.03;;;;;;;4.33;62.34;101064.63;147789;1146;104465;-80
2021/03/28 03:05:39;;;;;;;9.00;5.12;;;;;;;4.33;62.23;101054.06;147655;1147;104470;-80
2021/03/28 03:08:51;;;;;;;8.83;5.53;;;;;;;4.35;61.99;101066.31;147540;1147;104378;-78
2021/03/28 03:12:11;;;;;;;10.30;6.07;;;;;;;4.40;62.67;101072.18;147536;1147;104572;-83
2021/03/28 03:15:25;;;;;;;10.70;5.00;;;;;;;4.48;62.23;101080.48;147729;1147;104569;-80
2021/03/28 03:19:19;;;;;;;8.98;5.37;;;;;;;4.60;62.68;101077.11;147572;1147;104521;-84
2021/03/28 03:23:17;;;;;;;9.53;4.70;;;;;;;4.69;62.69;101078.31;147340;1147;104460;-82
2021/03/28 03:26:51;;;;;;;9.20;5.00;;;;;;;4.70;61.94;101075.59;147685;1148;104940;-81
2021/03/28 03:30:38;;;;;;;8.40;4.83;;;;;;;4.74;62.27;101078.89;147627;1147;104550;-83
2021/03/28 03:34:11;;;;;;;7.17;4.47;;;;;;;4.75;62.46;101080.57;147758;1147;104633;-82
2021/03/28 03:37:56;;;;;;;8.15;4.90;;;;;;;4.78;62.14;101084.84;148716;1147;104497;-84
2021/03/28 03:41:30;;;;;;;8.55;5.50;;;;;;;4.76;62.35;101089.38;147654;1147;104545;-82
2021/03/28 03:45:02;;;;;;;8.97;5.03;;;;;;;4.72;62.73;101101.94;147579;1147;104455;-78
2021/03/28 03:48:19;;;;;;;7.23;4.53;;;;;;;4.67;62.51;101101.36;147765;1147;104536;-78
2021/03/28 03:52:09;;;;;;;6.80;4.58;;;;;;;4.68;62.59;101103.91;147716;1147;104628;-79
2021/03/28 03:55:19;;;;;;;8.13;5.00;;;;;;;4.70;62.13;101114.40;147766;1148;104545;-82
2021/03/28 03:58:30;;;;;;;8.30;4.85;;;;;;;4.72;62.87;101115.16;147223;1147;104581;-82
2021/03/28 04:01:39;;;;;;;10.28;5.22;;;;;;;4.71;62.29;101119.59;147305;1148;104438;-82
2021/03/28 04:04:52;;;;;;;9.28;4.85;;;;;;;4.74;62.62;101121.19;147669;1148;104470;-79
2021/03/28 04:08:19;;;;;;;9.60;4.67;;;;;;;4.80;62.60;101125.26;147814;1147;104614;-85
2021/03/28 04:11:39;;;;;;;7.87;4.17;;;;;;;4.91;62.57;101112.22;147705;1147;104478;-83
2021/03/28 04:15:17;;;;;;;7.37;4.20;;;;;;;4.98;62.39;101117.97;147261;1147;104538;-82
2021/03/28 04:18:55;;;;;;;7.43;4.20;;;;;;;5.02;62.18;101122.98;147510;1148;104587;-82
2021/03/28 04:22:28;;;;;;;27.55;17.60;;;;;;;4.99;61.77;101128.45;147409;1147;105145;-81
2021/03/28 04:25:42;;;;;;;18.60;9.60;;;;;;;4.96;62.03;101130.44;147734;1147;104812;-80
2021/03/28 04:28:56;;;;;;;10.68;5.30;;;;;;;4.87;62.21;101139.81;147793;1147;104572;-79
2021/03/28 04:32:44;;;;;;;8.35;4.50;;;;;;;4.88;62.61;101141.49;147580;1147;104450;-82
2021/03/28 04:36:12;;;;;;;8.03;4.78;;;;;;;4.81;62.37;101137.52;147616;1148;104525;-81
2021/03/28 04:39:37;;;;;;;10.13;5.60;;;;;;;4.77;62.64;101157.16;147807;1147;104569;-81
2021/03/28 04:43:28;;;;;;;9.83;5.07;;;;;;;4.76;62.59;101147.55;147807;1147;104588;-82
2021/03/28 04:47:08;;;;;;;8.37;4.90;;;;;;;4.76;63.01;101158.96;147891;1147;104378;-84
2021/03/28 04:50:39;;;;;;;8.40;4.75;;;;;;;4.82;62.49;101169.16;147697;1147;104560;-81
2021/03/28 04:54:22;;;;;;;18.03;10.43;;;;;;;4.90;62.67;101176.63;147791;1147;104560;-81
2021/03/28 04:57:43;;;;;;;11.80;5.00;;;;;;;4.96;62.44;101175.41;147763;1147;104482;-81
2021/03/28 05:00:59;;;;;;;10.67;5.50;;;;;;;5.00;62.59;101182.20;147582;1147;104633;-84
2021/03/28 05:04:43;;;;;;;10.80;5.53;;;;;;;5.11;62.61;101172.66;147660;1147;104551;-78
2021/03/28 05:08:24;;;;;;;28.32;15.35;;;;;;;5.30;62.72;101185.59;147679;1147;104491;-79
2021/03/28 05:12:02;;;;;;;12.33;6.10;;;;;;;5.47;62.87;101187.17;147770;1147;104486;-80
2021/03/28 05:15:39;;;;;;;11.73;5.93;;;;;;;5.58;62.28;101198.87;147707;1147;104550;-81
2021/03/28 05:19:25;;;;;;;14.73;7.97;;;;;;;5.62;62.02;101190.66;147814;1147;104611;-81
2021/03/28 05:23:09;;;;;;;12.17;6.60;;;;;;;5.66;62.35;101199.25;147890;1147;104572;-76
2021/03/28 05:26:47;;;;;;;15.35;8.93;;;;;;;5.66;62.16;101209.84;147781;1147;104457;-76
2021/03/28 05:30:23;;;;;;;14.80;8.08;;;;;;;5.62;62.11;101213.61;147538;1148;104467;-76
2021/03/28 05:33:52;;;;;;;15.28;9.83;;;;;;;5.62;62.32;101226.84;147765;1147;104501;-76
2021/03/28 05:37:28;;;;;;;20.92;13.62;;;;;;;5.64;62.50;101227.59;147699;1147;104558;-78
2021/03/28 05:41:18;;;;;;;13.83;8.23;;;;;;;5.59;62.20;101237.66;147296;1148;104631;-76
2021/03/28 05:44:37;;;;;;;19.45;11.08;;;;;;;5.55;62.76;101242.28;147062;1147;104578;-75
2021/03/28 05:48:02;;;;;;;16.50;9.53;;;;;;;5.56;62.35;101243.13;147243;1147;104460;-77
2021/03/28 05:51:24;;;;;;;24.72;13.98;;;;;;;5.62;62.61;101253.32;147348;1147;105447;-79
2021/03/28 05:55:01;;;;;;;20.60;11.60;;;;;;;5.53;62.51;101260.06;147840;1147;104519;-81
2021/03/28 05:58:32;;;;;;;23.42;12.43;;;;;;;5.56;62.63;101259.02;147618;1146;104498;-80
2021/03/28 06:02:01;;;;;;;14.80;8.90;;;;;;;5.66;62.59;101266.30;147610;1147;104533;-77
2021/03/28 06:05:48;;;;;;;16.85;9.45;;;;;;;5.77;62.31;101262.95;147747;1147;104553;-77
2021/03/28 06:09:21;;;;;;;13.60;7.10;;;;;;;5.85;62.13;101271.28;147722;1147;105005;-78
2021/03/28 06:13:05;;;;;;;16.32;10.25;;;;;;;5.93;62.22;101268.14;147255;1148;104524;-76
2021/03/28 06:16:23;;;;;;;10.98;7.25;;;;;;;5.96;62.15;101277.71;147647;1146;104540;-79
2021/03/28 06:19:52;;;;;;;12.82;8.25;;;;;;;5.86;62.30;101288.86;147655;1147;104551;-85
2021/03/28 06:23:36;;;;;;;12.73;8.45;;;;;;;5.93;62.37;101283.16;147593;1147;104551;-80
2021/03/28 06:27:20;;;;;;;14.93;9.35;;;;;;;5.96;62.37;101291.80;147782;1147;104662;-85
2021/03/28 06:31:01;;;;;;;14.85;8.05;;;;;;;5.89;61.66;101296.62;147827;1147;104540;-78
2021/03/28 06:34:39;;;;;;;11.93;8.15;;;;;;;5.88;61.71;101294.91;147702;1147;104549;-79
2021/03/28 06:38:14;;;;;;;13.45;8.03;;;;;;;5.84;61.99;101296.05;147698;1147;104515;-78
2021/03/28 06:41:42;;;;;;;11.63;8.35;;;;;;;5.82;62.36;101308.55;147720;1148;104448;-80
2021/03/28 06:45:15;;;;;;;16.17;9.10;;;;;;;5.90;61.82;101316.00;147780;1148;104476;-78
2021/03/28 06:49:12;;;;;;;13.07;8.27;;;;;;;6.06;62.45;101315.91;147567;1147;104643;-78
2021/03/28 06:52:32;;;;;;;15.10;9.23;;;;;;;6.12;62.16;101309.37;147837;1147;104589;-76
2021/03/28 06:55:38;;;;;;;13.70;9.33;;;;;;;6.15;62.58;101320.63;147754;1147;104477;-78
2021/03/28 06:59:26;;;;;;;20.65;12.73;;;;;;;6.16;61.66;101316.17;147469;1146;104458;-78
2021/03/28 07:03:03;;;;;;;15.75;9.35;;;;;;;6.17;61.64;101308.13;147072;1150;104592;-75
2021/03/28 07:06:22;;;;;;;23.63;14.87;;;;;;;6.33;61.97;101315.92;147110;1148;104621;-75
2021/03/28 07:09:42;;;;;;;15.20;10.30;;;;;;;6.44;60.87;101309.94;147947;1147;104538;-69
2021/03/28 07:13:21;;;;;;;18.42;12.30;;;;;;;6.37;61.94;101304.20;147507;1146;104546;-73
2021/03/28 07:16:42;;;;;;;27.55;16.50;;;;;;;6.51;61.63;101311.25;147618;1147;104511;-72
2021/03/28 07:20:20;;;;;;;16.67;9.75;;;;;;;6.61;61.52;101307.03;147757;1147;104590;-73
2021/03/28 07:23:56;;;;;;;19.12;12.05;;;;;;;6.75;61.84;101314.06;147418;1146;104844;-79
2021/03/28 07:27:44;;;;;;;12.23;8.20;;;;;;;6.89;61.29;101315.81;147547;1147;104512;-77
2021/03/28 07:31:20;;;;;;;14.33;8.93;;;;;;;7.00;61.29;101312.41;147706;1147;104519;-76
2021/03/28 07:35:11;;;;;;;15.90;8.50;;;;;;;7.04;60.00;101316.55;147737;1147;104892;-74
2021/03/28 07:38:58;;;;;;;13.13;7.50;;;;;;;7.06;60.77;101326.14;146724;1149;104563;-75
2021/03/28 07:42:45;;;;;;;14.13;8.58;;;;;;;7.19;60.09;101333.25;147089;1148;104652;-73
2021/03/28 07:46:50;;;;;;;14.95;9.08;;;;;;;7.22;59.72;101339.20;147412;1148;104609;-76
2021/03/28 07:50:31;;;;;;;11.10;7.00;;;;;;;7.23;60.86;101340.05;146961;1150;104642;-70
2021/03/28 07:54:17;;;;;;;16.93;9.13;;;;;;;7.35;59.88;101344.53;147276;1147;104892;-73
2021/03/28 07:57:42;;;;;;;11.75;7.30;;;;;;;7.52;60.55;101342.50;147490;1147;104462;-76
2021/03/28 08:01:18;;;;;;;9.55;6.67;;;;;;;7.65;59.59;101349.50;147780;1147;105022;-70
2021/03/28 08:05:02;;;;;;;15.28;9.28;;;;;;;7.43;59.40;101342.19;147842;1147;104496;-74
2021/03/28 08:08:27;;;;;;;10.27;6.30;;;;;;;7.62;59.62;101346.20;147784;1147;104546;-71
2021/03/28 08:11:51;;;;;;;11.75;6.35;;;;;;;7.84;58.72;101346.41;147687;1147;104441;-76
2021/03/28 08:15:25;;;;;;;11.38;6.10;;;;;;;8.04;59.32;101360.08;147466;1147;104549;-77
2021/03/28 08:18:41;;;;;;;11.05;6.37;;;;;;;8.10;59.10;101350.82;147655;1146;104940;-84
2021/03/28 08:21:53;;;;;;;11.97;6.58;;;;;;;8.10;59.38;101364.11;147708;1147;104535;-74
2021/03/28 08:25:27;;;;;;;9.30;5.45;;;;;;;8.23;58.93;101355.14;147561;1146;104653;-75
2021/03/28 08:28:45;;;;;;;8.88;5.87;;;;;;;8.34;58.60;101364.17;147728;1147;104505;-76
2021/03/28 08:32:01;;;;;;;9.93;6.00;;;;;;;8.18;58.55;101348.45;147596;1147;104447;-75
2021/03/28 08:35:26;;;;;;;11.15;6.30;;;;;;;8.20;58.89;101357.20;147726;1147;104665;-75
2021/03/28 08:38:57;;;;;;;9.08;6.08;;;;;;;8.29;58.40;101361.83;147660;1146;104553;-79
2021/03/28 08:42:26;;;;;;;9.23;5.40;;;;;;;8.42;58.85;101351.19;147532;1146;104533;-76
2021/03/28 08:45:32;;;;;;;10.08;5.90;;;;;;;8.57;59.26;101355.38;147582;1148;104582;-73
2021/03/28 08:48:46;;;;;;;9.43;5.78;;;;;;;8.86;58.34;101359.52;147560;1146;104471;-75
2021/03/28 08:52:38;;;;;;;8.70;5.22;;;;;;;9.14;57.54;101351.14;147418;1148;104611;-76
2021/03/28 08:56:22;;;;;;;9.18;4.97;;;;;;;9.17;56.01;101358.87;147367;1148;104519;-74
2021/03/28 08:59:36;;;;;;;7.65;5.28;;;;;;;9.18;57.05;101365.05;147259;1147;104468;-74
2021/03/28 09:02:58;;;;;;;7.73;5.07;;;;;;;9.19;57.01;101356.95;147419;1147;104454;-74
2021/03/28 09:06:08;;;;;;;9.18;5.65;;;;;;;9.18;56.95;101349.06;147387;1146;104540;-73
2021/03/28 09:09:33;;;;;;;8.88;5.60;;;;;;;9.07;56.67;101359.72;147596;1148;104943;-74
2021/03/28 09:12:58;;;;;;;12.75;7.47;;;;;;;8.97;57.10;101352.42;147476;1147;104485;-73
2021/03/28 09:16:13;;;;;;;9.20;5.63;;;;;;;8.90;56.10;101352.99;147749;1147;104549;-77
2021/03/28 09:19:22;;;;;;;16.02;9.65;;;;;;;8.75;55.82;101354.98;147752;1147;104499;-74
2021/03/28 09:22:44;;;;;;;11.88;6.75;;;;;;;8.82;56.46;101354.41;147879;1147;104544;-74
2021/03/28 09:25:59;;;;;;;8.65;6.03;;;;;;;9.23;56.58;101353.08;147696;1148;104642;-77
2021/03/28 09:29:33;;;;;;;11.48;6.90;;;;;;;9.29;55.66;101367.74;147490;1147;104656;-77
2021/03/28 09:32:59;;;;;;;14.75;8.65;;;;;;;9.35;55.70;101364.63;148711;1146;104452;-77
2021/03/28 09:36:43;;;;;;;13.47;7.87;;;;;;;9.26;54.66;101365.33;151434;1153;103569;-77
2021/03/28 09:40:14;;;;;;;16.60;8.20;;;;;;;9.31;55.57;101368.47;147418;1147;105103;-75
2021/03/28 09:43:27;;;;;;;12.13;6.95;;;;;;;9.29;54.69;101365.08;147435;1147;104732;-76
2021/03/28 09:46:40;;;;;;;12.40;6.35;;;;;;;9.36;55.79;101350.33;147795;1147;104840;-75
2021/03/28 09:50:00;;;;;;;9.28;5.60;;;;;;;9.45;52.96;101356.78;147529;1147;104458;-74
2021/03/28 09:53:23;;;;;;;9.53;5.20;;;;;;;9.44;53.66;101358.58;147765;1147;104522;-78
2021/03/28 09:56:51;;;;;;;17.85;7.37;;;;;;;9.54;54.07;101360.53;147830;1147;104474;-74
2021/03/28 10:00:18;;;;;;;8.83;4.55;;;;;;;9.51;53.14;101350.12;147765;1147;104569;-73
2021/03/28 10:03:28;;;;;;;7.70;4.70;;;;;;;9.41;53.11;101361.49;147381;1147;104463;-74
2021/03/28 10:06:32;;;;;;;9.85;5.12;;;;;;;9.31;52.58;101351.66;147746;1147;104522;-72
2021/03/28 10:09:58;;;;;;;12.17;7.03;;;;;;;9.34;53.31;101356.75;147720;1147;104514;-75
2021/03/28 10:13:15;;;;;;;9.58;5.05;;;;;;;9.43;52.43;101354.23;147844;1148;104576;-74
2021/03/28 10:16:26;;;;;;;6.97;4.73;;;;;;;9.61;51.05;101359.09;147790;1148;104531;-75
2021/03/28 10:19:39;;;;;;;6.87;4.67;;;;;;;9.81;52.03;101361.05;147723;1146;104466;-77
2021/03/28 10:22:53;;;;;;;9.38;4.60;;;;;;;9.99;50.05;101342.73;147845;1148;104550;-76
2021/03/28 10:26:15;;;;;;;9.03;4.65;;;;;;;10.07;50.21;101368.80;147662;1147;104507;-76
2021/03/28 10:29:44;;;;;;;7.20;4.50;;;;;;;10.15;50.59;101338.84;147719;1147;104531;-76
2021/03/28 10:33:01;;;;;;;19.35;11.68;;;;;;;10.22;51.47;101354.23;147493;1147;104735;-72
2021/03/28 10:36:23;;;;;;;13.93;7.45;;;;;;;10.13;47.62;101357.62;147791;1147;104549;-71
2021/03/28 10:40:07;;;;;;;10.43;5.62;;;;;;;9.90;50.39;101351.46;147368;1147;104966;-76
2021/03/28 10:43:41;;;;;;;16.00;9.78;;;;;;;9.96;51.75;101344.80;146838;1148;104649;-73
2021/03/28 10:47:15;;;;;;;11.03;5.80;;;;;;;9.64;50.73;101356.17;147735;1148;104531;-71
2021/03/28 10:50:54;;;;;;;58.93;30.07;;;;;;;9.59;50.11;101351.21;147522;1148;104645;-70
2021/03/28 10:54:28;;;;;;;10.03;6.28;;;;;;;9.74;50.59;101349.17;147258;1146;104534;-71
2021/03/28 10:58:11;;;;;;;24.00;14.68;;;;;;;9.95;48.70;101348.42;147557;1147;104483;-72
2021/03/28 11:01:54;;;;;;;9.45;5.58;;;;;;;9.84;50.15;101349.29;147459;1147;104584;-72
2021/03/28 11:05:34;;;;;;;7.97;4.15;;;;;;;9.55;48.02;101354.25;147811;1147;104525;-72
2021/03/28 11:09:05;;;;;;;8.50;4.42;;;;;;;9.55;50.35;101352.42;147757;1147;104616;-71
2021/03/28 11:12:44;;;;;;;91.13;47.23;;;;;;;9.87;49.92;101341.03;147703;1147;104490;-71
2021/03/28 11:16:14;;;;;;;38.97;20.97;;;;;;;9.93;48.60;101355.70;147418;1147;104433;-71
2021/03/28 11:20:05;;;;;;;30.37;16.75;;;;;;;10.08;48.37;101365.14;147168;1147;104513;-70
2021/03/28 11:23:44;;;;;;;9.35;5.37;;;;;;;10.14;49.65;101358.47;147566;1147;104540;-72
2021/03/28 11:27:34;;;;;;;66.77;42.60;;;;;;;10.21;47.93;101354.34;147318;1148;104854;-72
2021/03/28 11:30:44;;;;;;;11.97;6.75;;;;;;;10.33;48.04;101364.04;147260;1147;104483;-71
2021/03/28 11:33:59;;;;;;;11.67;7.20;;;;;;;10.22;48.29;101369.39;147491;1147;104495;-71
2021/03/28 11:37:06;;;;;;;7.95;4.17;;;;;;;9.99;47.89;101361.41;147209;1147;104445;-72
2021/03/28 11:40:32;;;;;;;10.00;6.25;;;;;;;9.88;48.63;101357.89;147264;1147;104449;-73
2021/03/28 11:43:40;;;;;;;7.70;4.17;;;;;;;9.85;48.04;101368.79;147238;1145;104543;-71
2021/03/28 11:46:56;;;;;;;36.90;22.23;;;;;;;9.96;47.34;101363.46;147116;1147;104552;-72
2021/03/28 11:50:34;;;;;;;13.78;7.47;;;;;;;10.10;47.93;101363.19;147364;1147;104540;-73
2021/03/28 11:53:38;;;;;;;7.63;4.40;;;;;;;10.16;48.75;101365.39;147759;1147;105332;-75
2021/03/28 11:56:46;;;;;;;12.53;6.12;;;;;;;10.32;47.73;101381.03;147476;1146;104543;-73
2021/03/28 11:59:54;;;;;;;9.80;5.40;;;;;;;10.49;48.29;101368.13;147617;1147;104559;-73
2021/03/28 12:03:30;;;;;;;8.80;4.70;;;;;;;10.59;48.60;101367.27;147513;1147;104443;-74
2021/03/28 12:06:52;;;;;;;51.90;32.50;;;;;;;10.78;48.09;101373.77;147758;1147;104550;-74
2021/03/28 12:10:28;;;;;;;13.60;7.30;;;;;;;10.78;47.43;101363.93;147394;1147;104477;-76
2021/03/28 12:13:42;;;;;;;31.65;21.90;;;;;;;10.66;47.09;101377.44;147804;1147;104512;-76
2021/03/28 12:17:22;;;;;;;17.37;9.20;;;;;;;10.60;47.86;101382.33;147724;1147;104522;-73
2021/03/28 12:20:28;;;;;;;13.55;8.35;;;;;;;10.54;47.41;101379.28;147744;1148;104539;-77
2021/03/28 12:23:35;;;;;;;36.65;17.05;;;;;;;10.54;47.90;101377.46;147498;1146;104565;-76
2021/03/28 12:27:03;;;;;;;87.60;41.17;;;;;;;10.51;45.85;101377.73;147977;1147;104462;-74
2021/03/28 12:30:31;;;;;;;56.33;24.63;;;;;;;10.55;45.04;101384.51;148232;1146;104473;-72
2021/03/28 12:33:55;;;;;;;17.97;9.07;;;;;;;10.65;48.52;101392.61;148128;1147;104591;-76
2021/03/28 12:37:02;;;;;;;63.70;29.57;;;;;;;10.78;48.05;101373.77;147672;1146;104538;-80
2021/03/28 12:40:25;;;;;;;36.55;16.90;;;;;;;10.89;47.34;101386.21;147724;1147;104473;-75
2021/03/28 12:43:34;;;;;;;22.87;12.73;;;;;;;10.87;46.16;101383.66;147920;1148;104677;-76
2021/03/28 12:47:14;;;;;;;13.53;6.72;;;;;;;10.71;46.55;101375.24;147703;1147;104455;-75
2021/03/28 12:50:30;;;;;;;172.47;105.72;;;;;;;10.63;47.66;101377.70;147723;1147;104624;-77
2021/03/28 12:53:35;;;;;;;23.83;14.58;;;;;;;10.63;47.73;101370.53;147748;1147;104543;-80
2021/03/28 12:56:38;;;;;;;14.38;8.70;;;;;;;10.64;45.55;101374.05;147853;1146;104469;-74
2021/03/28 12:59:42;;;;;;;17.30;8.80;;;;;;;10.61;47.54;101369.81;147757;1147;104516;-85
2021/03/28 13:02:48;;;;;;;91.02;60.95;;;;;;;10.80;48.08;101361.14;147648;1147;104467;-78
2021/03/28 13:06:16;;;;;;;18.40;11.40;;;;;;;10.88;47.18;101360.50;147715;1147;104533;-78
2021/03/28 13:09:36;;;;;;;43.42;30.65;;;;;;;10.83;46.57;101376.05;147767;1146;104490;-75
2021/03/28 13:12:40;;;;;;;13.95;8.70;;;;;;;10.85;46.93;101385.61;147787;1147;104544;-78
2021/03/28 13:15:47;;;;;;;12.18;6.58;;;;;;;10.80;45.61;101383.34;147949;1146;104463;-77
2021/03/28 13:18:50;;;;;;;86.77;51.33;;;;;;;10.79;47.79;101384.30;148258;1147;104452;-78
2021/03/28 13:22:00;;;;;;;20.92;12.10;;;;;;;10.84;45.09;101381.27;147710;1148;104550;-82
2021/03/28 13:25:20;;;;;;;13.23;7.43;;;;;;;10.79;45.92;101378.95;147843;1146;105020;-80
2021/03/28 13:28:28;;;;;;;15.38;7.35;;;;;;;10.87;45.79;101372.14;147825;1147;105008;-80
2021/03/28 13:31:37;;;;;;;16.95;9.75;;;;;;;10.90;47.00;101371.91;147972;1147;104402;-75
2021/03/28 13:34:55;;;;;;;8.45;4.95;;;;;;;10.85;44.50;101392.78;147962;1148;104460;-79
2021/03/28 13:38:13;;;;;;;12.18;5.67;;;;;;;10.71;46.30;101385.92;147931;1147;104508;-77
2021/03/28 13:41:28;;;;;;;13.78;7.60;;;;;;;10.59;45.69;101385.95;147725;1147;104620;-77
2021/03/28 13:44:46;;;;;;;16.62;7.65;;;;;;;10.64;45.48;101382.05;147754;1147;104754;-76
2021/03/28 13:47:52;;;;;;;13.07;7.87;;;;;;;10.57;46.01;101387.90;148072;1146;104452;-75
2021/03/28 13:51:01;;;;;;;72.50;43.35;;;;;;;10.72;45.45;101376.92;148113;1146;104451;-77
2021/03/28 13:54:06;;;;;;;36.90;21.40;;;;;;;10.81;45.22;101395.70;147615;1147;104615;-85
2021/03/28 13:57:15;;;;;;;11.63;6.10;;;;;;;10.77;44.97;101390.75;148268;1147;104489;-79
2021/03/28 14:00:35;;;;;;;9.65;6.42;;;;;;;10.75;44.21;101374.84;147796;1146;104543;-77
2021/03/28 14:03:40;;;;;;;30.75;21.33;;;;;;;10.67;43.34;101395.16;147882;1147;104490;-79
2021/03/28 14:06:45;;;;;;;9.78;5.08;;;;;;;10.53;42.89;101391.80;147790;1146;104455;-83
2021/03/28 14:09:52;;;;;;;10.47;6.03;;;;;;;10.53;44.97;101375.78;147700;1147;104467;-81
2021/03/28 14:13:04;;;;;;;11.33;6.20;;;;;;;10.43;41.98;101390.85;147786;1146;104496;-82
2021/03/28 14:16:16;;;;;;;16.03;8.53;;;;;;;10.36;44.27;101385.15;147804;1147;104565;-82
2021/03/28 14:19:22;;;;;;;;;;;;;;;10.34;43.96;101392.43;147854;1147;104559;-80
2021/03/28 14:22:35;;;;;;;36.85;25.88;;;;;;;10.34;43.85;101387.09;148160;1147;104447;-80
2021/03/28 14:25:43;;;;;;;47.65;31.95;;;;;;;10.41;44.38;101387.43;147770;1146;104623;-77
2021/03/28 14:28:48;;;;;;;19.03;12.77;;;;;;;10.52;44.19;101384.75;147976;1147;104505;-79
2021/03/28 14:31:58;;;;;;;23.05;14.35;;;;;;;10.61;44.55;101384.00;148109;1147;104570;-77
2021/03/28 14:35:28;;;;;;;147.43;63.92;;;;;;;10.69;42.95;101391.38;147726;1147;104547;-78
2021/03/28 14:38:57;;;;;;;30.75;17.87;;;;;;;10.70;44.52;101385.08;147831;1146;104546;-78
2021/03/28 14:42:04;;;;;;;15.72;9.05;;;;;;;10.70;44.32;101386.88;147628;1147;104607;-80
2021/03/28 14:45:15;;;;;;;266.48;92.82;;;;;;;10.58;44.29;101372.72;147813;1147;104916;-80
2021/03/28 14:48:29;;;;;;;53.10;21.27;;;;;;;10.47;43.34;101389.63;147883;1146;104495;-79
2021/03/28 14:51:44;;;;;;;19.25;9.08;;;;;;;10.37;43.68;101375.31;147805;1147;104540;-79
2021/03/28 14:54:54;;;;;;;12.93;7.43;;;;;;;10.25;44.63;101382.46;147764;1146;104877;-80
2021/03/28 14:58:13;;;;;;;12.70;5.50;;;;;;;10.25;44.40;101382.46;147590;1147;105177;-81
2021/03/28 15:01:25;;;;;;;15.90;8.90;;;;;;;10.29;44.04;101385.73;147779;1148;104507;-79
2021/03/28 15:05:05;;;;;;;9.33;6.22;;;;;;;10.23;44.03;101389.74;147681;1146;104812;-79
2021/03/28 15:08:15;;;;;;;9.90;5.83;;;;;;;10.15;44.53;101393.02;147712;1147;104513;-79
2021/03/28 15:11:29;;;;;;;11.50;6.05;;;;;;;10.16;44.43;101389.40;147389;1147;104448;-80
2021/03/28 15:14:39;;;;;;;168.80;94.95;;;;;;;10.14;44.48;101386.01;147530;1146;104639;-81
2021/03/28 15:17:46;;;;;;;21.20;11.70;;;;;;;10.09;43.84;101385.52;147768;1147;104585;-78
2021/03/28 15:20:58;;;;;;;14.60;8.38;;;;;;;9.93;44.46;101390.35;147951;1147;104420;-80
2021/03/28 15:24:22;;;;;;;10.30;5.87;;;;;;;9.82;44.87;101386.73;147535;1147;104402;-80